Ullapool, United Kingdom
Current Conditions -  °F | °C
As of 1:50 AM on Thursday 23 Oct 2014 (Local Time) from EGPO Reporting Station
Scattered Clouds Scattered Clouds  
Wind Chill: 52°   Ceiling: Unl
Heat Index: 52°   Visibility: 6mi
Dew Point: 46°   Wind: 25mph
Humidity: 82%   Direction: 240°WSW
Pressure: 29.62"   Gusts: NA
Location:  57.9°N, 5.16°W
Report Text: EGPO 230050Z AUTO 24022KT 9999 FEW018/// SCT033/// 11/08 Q1003
Loading
Personal Weather Stations






























Interactive Weather Map
Tropical Storm Tracking
New forecast layout! Learn more

10-Day Weather Forecast

Advertisements
Track Severe Weather on mobile